Time;durP1;ratioP1;P1;durP2;ratioP2;P2;SDS_P1;SDS_P2;PMS_P1;PMS_P2;Temp;Humidity;BMP_temperature;BMP_pressure;BME280_temperature;BME280_humidity;BME280_pressure;Samples;Min_cycle;Max_cycle;Signal;HPM_P1;HPM_P2
2022/03/08 00:00:24;;;;;;;9.65;1.63;;;;;;;;;;5108829;28;20045;-72
2022/03/08 00:02:51;;;;;;;6.22;1.88;;;;;;;;;;5104335;28;20023;-73
2022/03/08 00:05:18;;;;;;;5.32;1.90;;;;;;;;;;5104111;28;20533;-72
2022/03/08 00:07:46;;;;;;;7.45;2.08;;;;;;;;;;5104133;28;20020;-73
2022/03/08 00:10:14;;;;;;;4.95;1.70;;;;;;;;;;5104391;28;20351;-72
2022/03/08 00:12:40;;;;;;;5.57;1.40;;;;;;;;;;5108260;28;20076;-72
2022/03/08 00:15:09;;;;;;;3.85;1.67;;;;;;;;;;5121234;28;20026;-73
2022/03/08 00:17:35;;;;;;;5.55;2.00;;;;;;;;;;5115692;28;20031;-72
2022/03/08 00:20:03;;;;;;;3.40;1.60;;;;;;;;;;5115889;28;20044;-72
2022/03/08 00:22:30;;;;;;;7.13;1.90;;;;;;;;;;5115593;28;20386;-72
2022/03/08 00:24:57;;;;;;;16.35;2.47;;;;;;;;;;5111062;28;20071;-72
2022/03/08 00:27:23;;;;;;;8.55;2.00;;;;;;;;;;5096161;28;20028;-73
2022/03/08 00:29:50;;;;;;;7.05;2.40;;;;;;;;;;5089824;28;20043;-73
2022/03/08 00:32:17;;;;;;;5.57;2.10;;;;;;;;;;5090053;28;20024;-72
2022/03/08 00:34:43;;;;;;;9.70;2.78;;;;;;;;;;5093599;28;20032;-73
2022/03/08 00:37:10;;;;;;;7.75;3.22;;;;;;;;;;5095077;28;20419;-73
2022/03/08 00:39:37;;;;;;;11.13;4.30;;;;;;;;;;5094864;28;20039;-72
2022/03/08 00:42:04;;;;;;;6.07;2.90;;;;;;;;;;5095056;28;20020;-72
2022/03/08 00:44:30;;;;;;;12.18;2.58;;;;;;;;;;5094734;28;20501;-73
2022/03/08 00:46:57;;;;;;;13.37;2.60;;;;;;;;;;5090996;28;20054;-73
2022/03/08 00:49:24;;;;;;;8.47;2.57;;;;;;;;;;5089646;28;20024;-73
2022/03/08 00:51:50;;;;;;;7.17;2.33;;;;;;;;;;5089876;28;20326;-73
2022/03/08 00:54:17;;;;;;;15.67;5.90;;;;;;;;;;5089329;28;20034;-73
2022/03/08 00:56:44;;;;;;;10.80;5.03;;;;;;;;;;5092507;28;20381;-73
2022/03/08 00:59:11;;;;;;;5.87;3.30;;;;;;;;;;5094573;28;20645;-73
2022/03/08 01:01:37;;;;;;;7.53;3.30;;;;;;;;;;5094527;28;20538;-73
2022/03/08 01:04:04;;;;;;;8.47;3.23;;;;;;;;;;5093907;28;20116;-72
2022/03/08 01:06:31;;;;;;;11.23;3.30;;;;;;;;;;5093862;28;20077;-73
2022/03/08 01:08:57;;;;;;;12.70;3.03;;;;;;;;;;5091492;28;20108;-73
2022/03/08 01:11:24;;;;;;;14.07;3.57;;;;;;;;;;5089351;28;20028;-73
2022/03/08 01:13:51;;;;;;;7.10;3.27;;;;;;;;;;5092850;28;20027;-72
2022/03/08 01:16:17;;;;;;;6.87;2.93;;;;;;;;;;5104769;28;20122;-72
2022/03/08 01:18:44;;;;;;;9.87;3.60;;;;;;;;;;5091049;28;20063;-72
2022/03/08 01:21:14;;;;;;;9.03;3.33;;;;;;;;;;5094217;28;20035;-72
2022/03/08 01:23:41;;;;;;;11.63;3.07;;;;;;;;;;5093814;28;20024;-72
2022/03/08 01:26:08;;;;;;;14.00;3.90;;;;;;;;;;5094240;28;20024;-73
2022/03/08 01:28:35;;;;;;;9.37;3.13;;;;;;;;;;5092911;28;20032;-73
2022/03/08 01:31:02;;;;;;;6.53;2.87;;;;;;;;;;5091348;28;20077;-73
2022/03/08 01:33:29;;;;;;;16.63;2.97;;;;;;;;;;5088957;28;20020;-73
2022/03/08 01:35:58;;;;;;;12.53;3.07;;;;;;;;;;5088805;28;20077;-73
2022/03/08 01:38:25;;;;;;;4.77;2.83;;;;;;;;;;5088630;28;20043;-72
2022/03/08 01:40:52;;;;;;;5.93;3.30;;;;;;;;;;5090444;28;20420;-72
2022/03/08 01:43:19;;;;;;;6.67;2.80;;;;;;;;;;5093654;28;20055;-73
2022/03/08 01:45:46;;;;;;;15.47;4.00;;;;;;;;;;5093375;28;20043;-73
2022/03/08 01:48:12;;;;;;;5.70;2.60;;;;;;;;;;5093885;28;20080;-72
2022/03/08 01:50:39;;;;;;;7.93;3.03;;;;;;;;;;5093705;28;20059;-72
2022/03/08 01:53:06;;;;;;;8.70;3.13;;;;;;;;;;5091470;28;20032;-72
2022/03/08 01:55:34;;;;;;;9.03;2.70;;;;;;;;;;5088579;28;20020;-72
2022/03/08 01:58:00;;;;;;;11.77;4.47;;;;;;;;;;5088060;28;20085;-72
2022/03/08 02:00:29;;;;;;;15.47;5.80;;;;;;;;;;5088324;28;20047;-73
2022/03/08 02:02:57;;;;;;;6.10;3.07;;;;;;;;;;5089896;28;20025;-72
2022/03/08 02:05:24;;;;;;;9.33;2.73;;;;;;;;;;5093291;28;20024;-72
2022/03/08 02:07:51;;;;;;;8.93;3.07;;;;;;;;;;5093395;28;20095;-72
2022/03/08 02:10:18;;;;;;;7.67;3.50;;;;;;;;;;5093347;28;20482;-73
2022/03/08 02:12:44;;;;;;;9.70;3.80;;;;;;;;;;5092777;28;20028;-73
2022/03/08 02:15:31;;;;;;;10.03;4.27;;;;;;;;;;5106094;28;20501;-73
2022/03/08 02:17:58;;;;;;;7.87;3.17;;;;;;;;;;5108505;28;20047;-72
2022/03/08 02:20:27;;;;;;;6.97;3.87;;;;;;;;;;5108353;28;20019;-72
2022/03/08 02:22:54;;;;;;;10.20;3.00;;;;;;;;;;5108519;28;20027;-72
2022/03/08 02:25:22;;;;;;;8.20;2.80;;;;;;;;;;5109607;28;20028;-73
2022/03/08 02:27:50;;;;;;;6.80;3.87;;;;;;;;;;5113411;28;20049;-72
2022/03/08 02:30:17;;;;;;;9.83;3.50;;;;;;;;;;5113279;28;20028;-72
2022/03/08 02:32:44;;;;;;;7.57;4.23;;;;;;;;;;5113257;28;20031;-72
2022/03/08 02:35:12;;;;;;;13.53;3.70;;;;;;;;;;5113170;28;20030;-72
2022/03/08 02:37:43;;;;;;;7.67;3.27;;;;;;;;;;5111333;28;20408;-72
2022/03/08 02:40:11;;;;;;;7.80;3.10;;;;;;;;;;5107660;28;20366;-72
2022/03/08 02:42:37;;;;;;;6.13;3.20;;;;;;;;;;5093791;28;20470;-72
2022/03/08 02:45:05;;;;;;;9.17;3.43;;;;;;;;;;5087580;28;20047;-73
2022/03/08 02:47:32;;;;;;;12.87;3.37;;;;;;;;;;5088866;28;20020;-72
2022/03/08 02:49:59;;;;;;;8.50;3.27;;;;;;;;;;5092712;28;20020;-72
2022/03/08 02:52:25;;;;;;;7.60;2.80;;;;;;;;;;5092621;28;20032;-73
2022/03/08 02:54:52;;;;;;;7.90;3.07;;;;;;;;;;5091832;28;20155;-72
2022/03/08 02:57:19;;;;;;;10.10;3.87;;;;;;;;;;5092118;28;20055;-72
2022/03/08 02:59:45;;;;;;;6.83;3.60;;;;;;;;;;5091225;28;20031;-72
2022/03/08 03:02:12;;;;;;;8.50;2.87;;;;;;;;;;5087464;28;20363;-73
2022/03/08 03:04:39;;;;;;;4.93;2.80;;;;;;;;;;5087391;28;20112;-72
2022/03/08 03:07:06;;;;;;;5.47;3.03;;;;;;;;;;5087069;28;20020;-72
2022/03/08 03:09:32;;;;;;;8.77;3.20;;;;;;;;;;5087716;28;20552;-72
2022/03/08 03:11:59;;;;;;;13.40;3.43;;;;;;;;;;5092581;28;20086;-72
2022/03/08 03:14:26;;;;;;;4.77;3.17;;;;;;;;;;5100538;28;20098;-72
2022/03/08 03:16:52;;;;;;;9.57;3.23;;;;;;;;;;5112798;28;20523;-72
2022/03/08 03:19:19;;;;;;;11.50;3.30;;;;;;;;;;5112674;28;20032;-72
2022/03/08 03:21:46;;;;;;;5.10;3.17;;;;;;;;;;5111810;28;20095;-72
2022/03/08 03:24:12;;;;;;;8.43;3.33;;;;;;;;;;5104216;28;20047;-72
2022/03/08 03:26:39;;;;;;;6.60;3.00;;;;;;;;;;5087321;28;20061;-72
2022/03/08 03:29:06;;;;;;;6.17;3.17;;;;;;;;;;5087189;28;20490;-73
2022/03/08 03:31:32;;;;;;;8.47;2.80;;;;;;;;;;5086720;28;20086;-72
2022/03/08 03:33:59;;;;;;;6.00;3.40;;;;;;;;;;5092416;28;20031;-69
2022/03/08 03:36:26;;;;;;;11.77;3.03;;;;;;;;;;5092056;28;20021;-72
2022/03/08 03:38:53;;;;;;;5.20;2.87;;;;;;;;;;5092312;28;20093;-74
2022/03/08 03:41:20;;;;;;;7.93;2.67;;;;;;;;;;5091979;28;20067;-69
2022/03/08 03:43:46;;;;;;;8.10;2.70;;;;;;;;;;5091801;28;20359;-74
2022/03/08 03:46:13;;;;;;;8.07;3.03;;;;;;;;;;5087855;28;20012;-76
2022/03/08 03:48:40;;;;;;;5.80;3.00;;;;;;;;;;5086807;28;20024;-73
2022/03/08 03:51:07;;;;;;;9.07;3.43;;;;;;;;;;5088494;28;20020;-73
2022/03/08 03:53:33;;;;;;;6.93;3.10;;;;;;;;;;5090894;28;20035;-73
2022/03/08 03:56:00;;;;;;;9.30;2.83;;;;;;;;;;5095453;28;20112;-71
2022/03/08 03:58:27;;;;;;;6.13;3.07;;;;;;;;;;5094467;28;20359;-71
2022/03/08 04:00:54;;;;;;;4.57;2.80;;;;;;;;;;5094977;28;20114;-73
2022/03/08 04:03:20;;;;;;;6.27;3.00;;;;;;;;;;5095725;28;20028;-71
2022/03/08 04:05:47;;;;;;;7.07;3.33;;;;;;;;;;5094954;28;20055;-76
2022/03/08 04:08:15;;;;;;;9.17;3.00;;;;;;;;;;5090736;28;20024;-72
2022/03/08 04:10:42;;;;;;;6.37;3.60;;;;;;;;;;5090583;28;20028;-74
2022/03/08 04:13:09;;;;;;;10.70;3.10;;;;;;;;;;5090502;28;20028;-71
2022/03/08 04:15:36;;;;;;;12.30;3.20;;;;;;;;;;5108752;28;20485;-74
2022/03/08 04:18:02;;;;;;;7.27;3.43;;;;;;;;;;5114796;28;20016;-73
2022/03/08 04:20:29;;;;;;;6.97;3.03;;;;;;;;;;5115822;28;20020;-75
2022/03/08 04:22:56;;;;;;;6.60;3.10;;;;;;;;;;5115493;28;20099;-72
2022/03/08 04:25:23;;;;;;;8.13;3.33;;;;;;;;;;5115740;28;20042;-73
2022/03/08 04:27:49;;;;;;;7.97;3.10;;;;;;;;;;5113683;28;20080;-71
2022/03/08 04:30:16;;;;;;;7.33;3.23;;;;;;;;;;5090530;28;20543;-71
2022/03/08 04:32:43;;;;;;;4.93;2.70;;;;;;;;;;5090204;28;20024;-71
2022/03/08 04:35:10;;;;;;;4.53;2.60;;;;;;;;;;5089959;28;20028;-71
2022/03/08 04:37:37;;;;;;;5.43;2.90;;;;;;;;;;5089691;28;20028;-73
2022/03/08 04:40:07;;;;;;;4.50;2.37;;;;;;;;;;5093427;28;20095;-71
2022/03/08 04:42:34;;;;;;;4.87;2.80;;;;;;;;;;5095069;28;20482;-68
2022/03/08 04:45:00;;;;;;;6.60;2.60;;;;;;;;;;5095039;28;20067;-69
2022/03/08 04:47:27;;;;;;;7.20;2.77;;;;;;;;;;5094717;28;20042;-68
2022/03/08 04:49:54;;;;;;;5.27;2.23;;;;;;;;;;5093219;28;20121;-67
2022/03/08 04:52:20;;;;;;;5.40;1.93;;;;;;;;;;5089061;28;20020;-67
2022/03/08 04:54:47;;;;;;;3.83;2.10;;;;;;;;;;5087950;28;20024;-67
2022/03/08 04:57:14;;;;;;;6.27;3.20;;;;;;;;;;5087764;28;20028;-67
2022/03/08 04:59:40;;;;;;;7.50;2.20;;;;;;;;;;5088110;28;20375;-67
2022/03/08 05:02:07;;;;;;;6.03;3.13;;;;;;;;;;5089299;28;20050;-67
2022/03/08 05:04:34;;;;;;;3.83;2.10;;;;;;;;;;5092825;28;20493;-67
2022/03/08 05:07:00;;;;;;;4.93;2.07;;;;;;;;;;5094629;28;20020;-67
2022/03/08 05:09:27;;;;;;;5.47;3.00;;;;;;;;;;5094266;28;20016;-67
2022/03/08 05:11:54;;;;;;;5.10;1.90;;;;;;;;;;5093968;28;20073;-67
2022/03/08 05:14:20;;;;;;;6.90;2.07;;;;;;;;;;5090970;28;20099;-67
2022/03/08 05:16:47;;;;;;;13.70;3.23;;;;;;;;;;5089297;28;20024;-67
2022/03/08 05:19:14;;;;;;;4.80;2.23;;;;;;;;;;5088964;28;20450;-66
2022/03/08 05:21:41;;;;;;;5.97;2.57;;;;;;;;;;5088894;28;20343;-67
2022/03/08 05:24:07;;;;;;;5.67;2.40;;;;;;;;;;5091643;28;20370;-66
2022/03/08 05:26:37;;;;;;;6.03;2.77;;;;;;;;;;5093874;28;20027;-66
2022/03/08 05:29:04;;;;;;;4.73;2.40;;;;;;;;;;5093155;28;20036;-67
2022/03/08 05:31:31;;;;;;;6.70;2.63;;;;;;;;;;5093920;28;20099;-66
2022/03/08 05:33:57;;;;;;;4.00;2.37;;;;;;;;;;5094012;28;20016;-68
2022/03/08 05:36:24;;;;;;;6.30;2.50;;;;;;;;;;5091116;28;20432;-66
2022/03/08 05:38:51;;;;;;;3.90;2.33;;;;;;;;;;5088522;28;20035;-66
2022/03/08 05:41:18;;;;;;;3.90;2.00;;;;;;;;;;5088580;28;20375;-66
2022/03/08 05:43:44;;;;;;;4.30;2.23;;;;;;;;;;5088398;28;20107;-67
2022/03/08 05:46:11;;;;;;;5.10;1.90;;;;;;;;;;5090083;28;20095;-66
2022/03/08 05:48:38;;;;;;;5.40;2.43;;;;;;;;;;5093571;28;20036;-66
2022/03/08 05:51:05;;;;;;;7.23;1.63;;;;;;;;;;5093485;28;20032;-68
2022/03/08 05:53:32;;;;;;;2.97;1.63;;;;;;;;;;5093531;28;20027;-66
2022/03/08 05:55:59;;;;;;;2.93;1.97;;;;;;;;;;5092931;28;20020;-66
2022/03/08 05:58:26;;;;;;;3.97;2.17;;;;;;;;;;5091081;28;20498;-66
2022/03/08 06:00:52;;;;;;;5.03;2.00;;;;;;;;;;5087980;28;20047;-66
2022/03/08 06:03:19;;;;;;;5.47;2.20;;;;;;;;;;5087928;28;20027;-67
2022/03/08 06:05:46;;;;;;;3.00;1.83;;;;;;;;;;5088060;28;20036;-66
2022/03/08 06:08:14;;;;;;;3.60;2.40;;;;;;;;;;5089496;28;20534;-67
2022/03/08 06:10:41;;;;;;;6.73;3.30;;;;;;;;;;5093335;28;20115;-66
2022/03/08 06:13:07;;;;;;;5.57;2.17;;;;;;;;;;5092709;28;20027;-66
2022/03/08 06:15:34;;;;;;;6.07;2.50;;;;;;;;;;5093097;28;20032;-67
2022/03/08 06:18:01;;;;;;;5.47;2.13;;;;;;;;;;5093115;28;20150;-66
2022/03/08 06:20:27;;;;;;;6.20;2.17;;;;;;;;;;5090843;28;20107;-66
2022/03/08 06:22:54;;;;;;;3.80;1.80;;;;;;;;;;5087803;28;20020;-66
2022/03/08 06:25:21;;;;;;;5.17;1.73;;;;;;;;;;5087299;28;20063;-66
2022/03/08 06:27:48;;;;;;;6.43;2.87;;;;;;;;;;5087534;28;20432;-66
2022/03/08 06:30:15;;;;;;;5.17;2.50;;;;;;;;;;5088410;28;20043;-66
2022/03/08 06:32:41;;;;;;;2.70;1.63;;;;;;;;;;5092868;28;20016;-66
2022/03/08 06:35:08;;;;;;;4.53;2.10;;;;;;;;;;5092757;28;20394;-66
2022/03/08 06:37:35;;;;;;;4.17;2.03;;;;;;;;;;5092289;28;20027;-67
2022/03/08 06:40:02;;;;;;;5.47;2.30;;;;;;;;;;5092800;28;20028;-66
2022/03/08 06:42:29;;;;;;;6.77;2.27;;;;;;;;;;5091474;28;20028;-66
2022/03/08 06:44:56;;;;;;;7.50;2.50;;;;;;;;;;5087370;28;20028;-66
2022/03/08 06:47:22;;;;;;;4.10;2.37;;;;;;;;;;5087259;28;20378;-66
2022/03/08 06:49:49;;;;;;;4.70;2.83;;;;;;;;;;5087514;28;20078;-66
2022/03/08 06:52:16;;;;;;;4.10;2.00;;;;;;;;;;5087679;28;20055;-66
2022/03/08 06:54:43;;;;;;;6.37;2.60;;;;;;;;;;5092227;28;20028;-66
2022/03/08 06:57:09;;;;;;;4.77;2.37;;;;;;;;;;5092215;28;20027;-66
2022/03/08 06:59:36;;;;;;;4.97;2.20;;;;;;;;;;5092186;28;20046;-64
2022/03/08 07:02:03;;;;;;;6.00;2.47;;;;;;;;;;5092449;28;20020;-64
2022/03/08 07:04:30;;;;;;;7.47;2.67;;;;;;;;;;5091462;28;20039;-64
2022/03/08 07:06:57;;;;;;;6.00;2.57;;;;;;;;;;5087178;28;20028;-64
2022/03/08 07:09:24;;;;;;;5.50;2.60;;;;;;;;;;5087152;28;20032;-65
2022/03/08 07:11:52;;;;;;;6.33;2.60;;;;;;;;;;5087222;28;20028;-64
2022/03/08 07:14:18;;;;;;;4.70;2.80;;;;;;;;;;5086202;28;20465;-64
2022/03/08 07:16:46;;;;;;;4.23;2.13;;;;;;;;;;5092229;28;20028;-65
2022/03/08 07:19:13;;;;;;;5.97;2.53;;;;;;;;;;5092319;28;20028;-64
2022/03/08 07:21:40;;;;;;;5.30;2.23;;;;;;;;;;5092118;28;20028;-64
2022/03/08 07:24:08;;;;;;;6.70;2.30;;;;;;;;;;5091718;28;20029;-64
2022/03/08 07:26:35;;;;;;;6.90;2.00;;;;;;;;;;5093767;28;20466;-64
2022/03/08 07:29:01;;;;;;;3.70;2.00;;;;;;;;;;5090886;28;20035;-64
2022/03/08 07:31:28;;;;;;;3.83;1.93;;;;;;;;;;5091295;28;20020;-64
2022/03/08 07:33:55;;;;;;;3.70;1.83;;;;;;;;;;5091069;28;20025;-64
2022/03/08 07:36:23;;;;;;;3.43;1.63;;;;;;;;;;5090914;28;20028;-65
2022/03/08 07:38:50;;;;;;;5.10;2.40;;;;;;;;;;5095825;28;20027;-64
2022/03/08 07:41:16;;;;;;;3.43;1.53;;;;;;;;;;5096079;28;20062;-64
2022/03/08 07:43:43;;;;;;;2.40;1.20;;;;;;;;;;5095615;28;20020;-64
2022/03/08 07:46:10;;;;;;;5.17;1.63;;;;;;;;;;5095932;28;20030;-64
2022/03/08 07:48:37;;;;;;;3.93;1.80;;;;;;;;;;5096018;28;20108;-64
2022/03/08 07:51:04;;;;;;;5.20;2.43;;;;;;;;;;5090531;28;20085;-64
2022/03/08 07:53:31;;;;;;;3.30;1.60;;;;;;;;;;5090701;28;20398;-64
2022/03/08 07:55:58;;;;;;;3.50;1.70;;;;;;;;;;5090583;28;20020;-64
2022/03/08 07:58:25;;;;;;;5.43;1.80;;;;;;;;;;5090129;28;20501;-64
2022/03/08 08:00:51;;;;;;;4.53;1.60;;;;;;;;;;5094928;28;20095;-64
2022/03/08 08:03:18;;;;;;;3.03;1.83;;;;;;;;;;5095681;28;20046;-64
2022/03/08 08:05:45;;;;;;;2.80;1.60;;;;;;;;;;5095633;28;20036;-64
2022/03/08 08:08:12;;;;;;;6.63;2.10;;;;;;;;;;5095651;28;20024;-64
2022/03/08 08:10:38;;;;;;;4.60;1.50;;;;;;;;;;5095545;28;20027;-64
2022/03/08 08:13:05;;;;;;;3.60;1.93;;;;;;;;;;5090591;28;20099;-64
2022/03/08 08:15:32;;;;;;;2.10;1.30;;;;;;;;;;5089920;28;20020;-64
2022/03/08 08:17:59;;;;;;;5.43;1.90;;;;;;;;;;5090199;28;20024;-64
2022/03/08 08:20:26;;;;;;;3.70;1.80;;;;;;;;;;5089728;28;20126;-63
2022/03/08 08:22:53;;;;;;;3.10;1.50;;;;;;;;;;5094093;28;20467;-64
2022/03/08 08:25:20;;;;;;;2.90;1.80;;;;;;;;;;5095311;28;20028;-63
2022/03/08 08:27:47;;;;;;;2.77;1.60;;;;;;;;;;5095120;28;20048;-63
2022/03/08 08:30:13;;;;;;;2.67;1.60;;;;;;;;;;5094844;28;20046;-63
2022/03/08 08:32:43;;;;;;;8.33;1.83;;;;;;;;;;5095008;28;20382;-63
2022/03/08 08:35:10;;;;;;;2.43;1.37;;;;;;;;;;5090678;28;20386;-63
2022/03/08 08:37:37;;;;;;;3.10;1.60;;;;;;;;;;5089557;28;20396;-64
2022/03/08 08:40:05;;;;;;;2.07;1.30;;;;;;;;;;5089730;28;20095;-63
2022/03/08 08:42:32;;;;;;;3.03;1.80;;;;;;;;;;5089633;28;20024;-64
2022/03/08 08:44:59;;;;;;;3.73;1.30;;;;;;;;;;5093238;28;20040;-65
2022/03/08 08:47:26;;;;;;;2.20;1.33;;;;;;;;;;5094193;28;20024;-63
2022/03/08 08:49:53;;;;;;;2.87;1.37;;;;;;;;;;5094838;28;20032;-63
2022/03/08 08:52:20;;;;;;;2.80;1.40;;;;;;;;;;5094761;28;20056;-63
2022/03/08 08:54:47;;;;;;;2.20;1.40;;;;;;;;;;5094692;28;20081;-65
2022/03/08 08:57:14;;;;;;;2.63;1.30;;;;;;;;;;5090637;28;20044;-64
2022/03/08 08:59:41;;;;;;;3.17;1.47;;;;;;;;;;5089219;28;20158;-64
2022/03/08 09:02:09;;;;;;;4.13;1.53;;;;;;;;;;5088958;28;20039;-64
2022/03/08 09:04:36;;;;;;;3.10;1.40;;;;;;;;;;5089111;28;20394;-63
2022/03/08 09:07:03;;;;;;;4.23;1.30;;;;;;;;;;5092386;28;20024;-63
2022/03/08 09:09:29;;;;;;;3.13;1.43;;;;;;;;;;5094401;28;20039;-63
2022/03/08 09:11:56;;;;;;;3.37;1.53;;;;;;;;;;5094403;28;20534;-63
2022/03/08 09:14:23;;;;;;;2.40;1.30;;;;;;;;;;5093843;28;20030;-63
2022/03/08 09:16:50;;;;;;;2.60;1.30;;;;;;;;;;5094214;28;20051;-63
2022/03/08 09:19:17;;;;;;;2.20;1.10;;;;;;;;;;5090337;28;20022;-63
2022/03/08 09:21:43;;;;;;;2.60;1.20;;;;;;;;;;5088871;28;20024;-63
2022/03/08 09:24:10;;;;;;;3.17;1.10;;;;;;;;;;5088699;28;20036;-64
2022/03/08 09:26:37;;;;;;;2.90;1.33;;;;;;;;;;5088978;28;20124;-63
2022/03/08 09:29:04;;;;;;;2.67;1.40;;;;;;;;;;5090880;28;20020;-63
2022/03/08 09:31:30;;;;;;;3.30;1.30;;;;;;;;;;5093940;28;20047;-63
2022/03/08 09:33:57;;;;;;;3.83;2.00;;;;;;;;;;5093732;28;20028;-64
2022/03/08 09:36:24;;;;;;;2.73;1.50;;;;;;;;;;5093769;28;20028;-63
2022/03/08 09:38:51;;;;;;;4.03;1.70;;;;;;;;;;5093647;28;20024;-63
2022/03/08 09:41:18;;;;;;;3.43;1.47;;;;;;;;;;5090408;28;20498;-63
2022/03/08 09:43:45;;;;;;;2.90;1.30;;;;;;;;;;5088524;28;20450;-63
2022/03/08 09:46:12;;;;;;;3.63;1.40;;;;;;;;;;5088407;28;20035;-63
2022/03/08 09:48:38;;;;;;;3.23;1.60;;;;;;;;;;5087461;28;20031;-64
2022/03/08 09:51:05;;;;;;;2.73;1.50;;;;;;;;;;5090525;28;20028;-63
2022/03/08 09:53:34;;;;;;;5.47;2.07;;;;;;;;;;5093448;28;20020;-63
2022/03/08 09:56:01;;;;;;;3.83;2.10;;;;;;;;;;5093377;28;20087;-63
2022/03/08 09:58:28;;;;;;;4.37;2.37;;;;;;;;;;5093340;28;20051;-63
2022/03/08 10:00:59;;;;;;;4.90;1.70;;;;;;;;;;5092974;28;20028;-63
2022/03/08 10:03:34;;;;;;;3.57;1.70;;;;;;;;;;5090741;28;20032;-63
2022/03/08 10:06:01;;;;;;;;;;;;;;;;;;5088517;28;20089;-63
2022/03/08 10:08:28;;;;;;;3.73;2.33;;;;;;;;;;5087968;28;19937;-63
2022/03/08 10:10:58;;;;;;;12.33;1.90;;;;;;;;;;5088187;28;20039;-63
2022/03/08 10:13:29;;;;;;;3.90;1.70;;;;;;;;;;5090277;28;20326;-63
2022/03/08 10:16:06;;;;;;;3.43;1.80;;;;;;;;;;5093192;28;20537;-63
2022/03/08 10:18:34;;;;;;;2.80;1.50;;;;;;;;;;5093072;28;20277;-63
2022/03/08 10:21:01;;;;;;;2.90;1.50;;;;;;;;;;5093186;28;20386;-63
2022/03/08 10:23:27;;;;;;;2.97;1.50;;;;;;;;;;5092923;28;20252;-63
2022/03/08 10:26:02;;;;;;;3.67;1.60;;;;;;;;;;5089514;28;20028;-63
2022/03/08 10:28:29;;;;;;;3.30;2.00;;;;;;;;;;5087563;28;20378;-63
2022/03/08 10:30:55;;;;;;;5.27;2.33;;;;;;;;;;5086887;28;20032;-63
2022/03/08 10:33:34;;;;;;;3.87;1.80;;;;;;;;;;5087709;28;20059;-63
2022/03/08 10:36:01;;;;;;;3.50;1.80;;;;;;;;;;5090932;28;20257;-63
2022/03/08 10:38:28;;;;;;;6.63;1.73;;;;;;;;;;5092939;28;20271;-63
2022/03/08 10:40:54;;;;;;;4.10;1.93;;;;;;;;;;5092609;28;20253;-63
2022/03/08 10:43:22;;;;;;;4.20;1.73;;;;;;;;;;5092779;28;20260;-63
2022/03/08 10:45:50;;;;;;;3.27;1.50;;;;;;;;;;5091944;28;20293;-63
2022/03/08 10:48:18;;;;;;;2.80;1.57;;;;;;;;;;5089069;28;20264;-63
2022/03/08 10:50:46;;;;;;;3.67;1.97;;;;;;;;;;5087656;28;20024;-63
2022/03/08 10:53:13;;;;;;;3.17;1.97;;;;;;;;;;5087210;28;20260;-63
2022/03/08 10:55:45;;;;;;;4.87;1.93;;;;;;;;;;5087496;28;20261;-64
2022/03/08 10:58:12;;;;;;;5.00;2.13;;;;;;;;;;5090170;28;20257;-63
2022/03/08 11:00:43;;;;;;;7.20;2.27;;;;;;;;;;5091937;28;20641;-63
2022/03/08 11:03:11;;;;;;;2.93;1.63;;;;;;;;;;5092474;28;20256;-63
2022/03/08 11:05:40;;;;;;;3.97;2.17;;;;;;;;;;5092312;28;20285;-63
2022/03/08 11:08:06;;;;;;;5.13;2.27;;;;;;;;;;5092424;28;20280;-63
2022/03/08 11:10:34;;;;;;;3.10;1.90;;;;;;;;;;5088427;28;20284;-63
2022/03/08 11:13:01;;;;;;;5.13;2.60;;;;;;;;;;5086794;28;20253;-63
2022/03/08 11:15:29;;;;;;;5.37;2.23;;;;;;;;;;5087020;28;20279;-63
2022/03/08 11:17:56;;;;;;;4.97;2.30;;;;;;;;;;5087082;28;20363;-63
2022/03/08 11:20:24;;;;;;;4.20;2.33;;;;;;;;;;5089987;28;20735;-63
2022/03/08 11:22:52;;;;;;;5.00;2.40;;;;;;;;;;5092351;28;20604;-63
2022/03/08 11:25:19;;;;;;;4.53;2.33;;;;;;;;;;5092119;28;20273;-62
2022/03/08 11:27:46;;;;;;;3.83;1.90;;;;;;;;;;5091466;28;20317;-63
2022/03/08 11:30:14;;;;;;;3.67;2.13;;;;;;;;;;5092036;28;20267;-63
2022/03/08 11:32:41;;;;;;;3.77;2.27;;;;;;;;;;5088562;28;20267;-63
2022/03/08 11:35:12;;;;;;;2.97;1.77;;;;;;;;;;5087132;28;20289;-63
2022/03/08 11:37:41;;;;;;;3.53;2.13;;;;;;;;;;5086670;28;20261;-63
2022/03/08 11:40:11;;;;;;;6.07;2.40;;;;;;;;;;5086835;28;20253;-63
2022/03/08 11:42:42;;;;;;;4.07;2.00;;;;;;;;;;5089654;28;20299;-63
2022/03/08 11:45:14;;;;;;;3.33;1.97;;;;;;;;;;5092243;28;20285;-62
2022/03/08 11:47:44;;;;;;;5.97;1.80;;;;;;;;;;5091921;28;20347;-63
2022/03/08 11:50:24;;;;;;;4.03;1.90;;;;;;;;;;5091992;28;20600;-64
2022/03/08 11:53:10;;;;;;;4.07;2.07;;;;;;;;;;5091425;28;20260;-63
2022/03/08 11:55:46;;;;;;;4.10;2.60;;;;;;;;;;5086616;28;20288;-62
2022/03/08 11:58:13;;;;;;;4.73;2.27;;;;;;;;;;5086353;28;20056;-63
2022/03/08 12:00:42;;;;;;;4.60;2.00;;;;;;;;;;5086801;28;20746;-63
2022/03/08 12:03:36;;;;;;;3.90;2.00;;;;;;;;;;5085830;28;20269;-62
2022/03/08 12:06:04;;;;;;;5.20;2.70;;;;;;;;;;5091761;28;20372;-63
2022/03/08 12:08:31;;;;;;;5.03;2.27;;;;;;;;;;5091869;28;20317;-63
2022/03/08 12:11:00;;;;;;;4.77;2.50;;;;;;;;;;5091807;28;20289;-62
2022/03/08 12:13:37;;;;;;;4.53;2.30;;;;;;;;;;5094962;28;20267;-62
2022/03/08 12:16:10;;;;;;;6.47;3.37;;;;;;;;;;5094157;28;20249;-62
2022/03/08 12:18:52;;;;;;;5.83;2.87;;;;;;;;;;5090096;28;20335;-63
2022/03/08 12:21:22;;;;;;;5.10;2.57;;;;;;;;;;5089718;28;20317;-62
2022/03/08 12:23:49;;;;;;;4.37;2.40;;;;;;;;;;5090140;28;20604;-63
2022/03/08 12:26:30;;;;;;;4.30;2.33;;;;;;;;;;5091804;28;20265;-62
2022/03/08 12:29:23;;;;;;;9.37;2.40;;;;;;;;;;5094944;28;20808;-62
2022/03/08 12:31:58;;;;;;;5.43;2.70;;;;;;;;;;5090348;28;20312;-63
2022/03/08 12:34:35;;;;;;;5.67;2.77;;;;;;;;;;5095026;28;20296;-63
2022/03/08 12:37:10;;;;;;;8.00;2.83;;;;;;;;;;5095049;28;20331;-62
2022/03/08 12:40:03;;;;;;;4.17;2.63;;;;;;;;;;5090663;28;20259;-62
2022/03/08 12:42:36;;;;;;;4.37;2.07;;;;;;;;;;5087886;28;20681;-62
2022/03/08 12:45:06;;;;;;;5.17;2.80;;;;;;;;;;5089896;28;20286;-62
2022/03/08 12:47:34;;;;;;;4.67;2.90;;;;;;;;;;5089138;28;20257;-63
2022/03/08 12:50:03;;;;;;;4.57;2.50;;;;;;;;;;5094753;28;20276;-62
2022/03/08 12:52:30;;;;;;;6.47;2.93;;;;;;;;;;5094884;28;20253;-62
2022/03/08 12:54:57;;;;;;;4.60;2.57;;;;;;;;;;5094655;28;20257;-62
2022/03/08 12:57:24;;;;;;;4.27;2.20;;;;;;;;;;5094542;28;20256;-63
2022/03/08 12:59:52;;;;;;;8.57;3.13;;;;;;;;;;5094168;28;20269;-62
2022/03/08 13:02:19;;;;;;;10.23;3.50;;;;;;;;;;5088921;28;20747;-62
2022/03/08 13:04:47;;;;;;;6.37;3.00;;;;;;;;;;5089180;28;20293;-63
2022/03/08 13:07:15;;;;;;;7.13;2.70;;;;;;;;;;5088557;28;20265;-62
2022/03/08 13:10:00;;;;;;;12.33;3.27;;;;;;;;;;5089188;28;20253;-62
2022/03/08 13:12:28;;;;;;;20.15;3.60;;;;;;;;;;5094121;28;20249;-62
2022/03/08 13:15:10;;;;;;;15.17;3.57;;;;;;;;;;5094227;28;20031;-62
2022/03/08 13:17:37;;;;;;;11.73;3.10;;;;;;;;;;5094190;28;20255;-62
2022/03/08 13:20:05;;;;;;;10.13;4.20;;;;;;;;;;5093704;28;20245;-62
2022/03/08 13:22:31;;;;;;;17.73;6.13;;;;;;;;;;5092884;28;20264;-62
2022/03/08 13:25:08;;;;;;;14.23;5.53;;;;;;;;;;5088622;28;20346;-62
2022/03/08 13:27:55;;;;;;;9.60;4.87;;;;;;;;;;5088867;28;20408;-63
2022/03/08 13:30:26;;;;;;;11.03;4.27;;;;;;;;;;5088410;28;20275;-62
2022/03/08 13:33:11;;;;;;;9.47;4.90;;;;;;;;;;5090376;28;20287;-63
2022/03/08 13:35:39;;;;;;;14.20;5.53;;;;;;;;;;5093869;28;20263;-62
2022/03/08 13:38:05;;;;;;;10.87;4.80;;;;;;;;;;5093772;28;20031;-62
2022/03/08 13:40:36;;;;;;;11.90;6.33;;;;;;;;;;5093746;28;20249;-63
2022/03/08 13:43:03;;;;;;;12.63;5.27;;;;;;;;;;5093723;28;20299;-63
2022/03/08 13:45:30;;;;;;;11.77;4.50;;;;;;;;;;5090117;28;20280;-63
2022/03/08 13:47:58;;;;;;;14.63;5.90;;;;;;;;;;5088165;28;20386;-63
2022/03/08 13:50:26;;;;;;;19.03;6.37;;;;;;;;;;5087759;28;20020;-64
2022/03/08 13:52:53;;;;;;;19.73;5.60;;;;;;;;;;5088308;28;20185;-63
2022/03/08 13:55:20;;;;;;;14.53;5.00;;;;;;;;;;5090277;28;20043;-63
2022/03/08 13:57:54;;;;;;;8.97;5.50;;;;;;;;;;5093568;28;20020;-63
2022/03/08 14:00:21;;;;;;;15.60;6.03;;;;;;;;;;5093359;28;20069;-64
2022/03/08 14:02:54;;;;;;;9.40;6.00;;;;;;;;;;5093251;28;20035;-64
2022/03/08 14:05:21;;;;;;;26.37;5.17;;;;;;;;;;5093325;28;20020;-63
2022/03/08 14:08:01;;;;;;;9.90;5.37;;;;;;;;;;5090114;28;20077;-63
2022/03/08 14:10:28;;;;;;;8.40;4.77;;;;;;;;;;5087395;28;20101;-63
2022/03/08 14:12:55;;;;;;;12.13;6.37;;;;;;;;;;5087353;28;20032;-64
2022/03/08 14:15:23;;;;;;;9.50;5.80;;;;;;;;;;5087749;28;20036;-64
2022/03/08 14:18:03;;;;;;;9.90;4.90;;;;;;;;;;5090312;28;20034;-64
2022/03/08 14:20:36;;;;;;;13.17;5.93;;;;;;;;;;5092841;28;20073;-64
2022/03/08 14:23:05;;;;;;;12.83;5.17;;;;;;;;;;5092987;28;20374;-64
2022/03/08 14:25:32;;;;;;;13.97;6.93;;;;;;;;;;5092934;28;20471;-64
2022/03/08 14:27:59;;;;;;;14.87;7.77;;;;;;;;;;5092826;28;20024;-64
2022/03/08 14:30:27;;;;;;;14.27;6.97;;;;;;;;;;5088748;28;20111;-64
2022/03/08 14:33:03;;;;;;;12.30;6.90;;;;;;;;;;5087398;28;20035;-64
2022/03/08 14:35:30;;;;;;;16.57;5.97;;;;;;;;;;5086703;28;20020;-66
2022/03/08 14:38:04;;;;;;;11.77;5.83;;;;;;;;;;5087390;28;20024;-67
2022/03/08 14:40:36;;;;;;;8.63;5.00;;;;;;;;;;5091054;28;20028;-66
2022/03/08 14:43:04;;;;;;;17.63;6.23;;;;;;;;;;5092714;28;20070;-66
2022/03/08 14:45:31;;;;;;;10.20;5.17;;;;;;;;;;5092161;28;20074;-66